sensor_id;sensor_type;location;lat;lon;timestamp;P1;durP1;ratioP1;P2;durP2;ratioP2
65658;SDS011;60181;53.258;6.932;2023-03-12T00:00:54;12.50;;;3.80;;
65658;SDS011;60181;53.258;6.932;2023-03-12T00:04:58;12.50;;;3.80;;
65658;SDS011;60181;53.258;6.932;2023-03-12T00:09:03;7.90;;;3.50;;
65658;SDS011;60181;53.258;6.932;2023-03-12T00:13:06;7.90;;;3.50;;
65658;SDS011;60181;53.258;6.932;2023-03-12T00:17:10;8.00;;;3.30;;
65658;SDS011;60181;53.258;6.932;2023-03-12T00:21:15;8.00;;;3.30;;
65658;SDS011;60181;53.258;6.932;2023-03-12T00:25:18;8.00;;;3.30;;
65658;SDS011;60181;53.258;6.932;2023-03-12T00:29:22;6.50;;;3.10;;
65658;SDS011;60181;53.258;6.932;2023-03-12T00:33:27;6.50;;;3.10;;
65658;SDS011;60181;53.258;6.932;2023-03-12T00:37:30;8.30;;;3.10;;
65658;SDS011;60181;53.258;6.932;2023-03-12T00:41:34;8.30;;;3.10;;
65658;SDS011;60181;53.258;6.932;2023-03-12T00:45:38;8.30;;;3.10;;
65658;SDS011;60181;53.258;6.932;2023-03-12T00:49:42;9.00;;;3.20;;
65658;SDS011;60181;53.258;6.932;2023-03-12T00:53:46;9.00;;;3.20;;
65658;SDS011;60181;53.258;6.932;2023-03-12T00:57:50;12.40;;;3.40;;
65658;SDS011;60181;53.258;6.932;2023-03-12T01:01:54;12.40;;;3.40;;
65658;SDS011;60181;53.258;6.932;2023-03-12T01:05:59;12.40;;;3.40;;
65658;SDS011;60181;53.258;6.932;2023-03-12T01:10:03;9.60;;;3.10;;
65658;SDS011;60181;53.258;6.932;2023-03-12T01:14:07;9.60;;;3.10;;
65658;SDS011;60181;53.258;6.932;2023-03-12T01:18:10;7.60;;;3.20;;
65658;SDS011;60181;53.258;6.932;2023-03-12T01:22:14;7.60;;;3.20;;
65658;SDS011;60181;53.258;6.932;2023-03-12T01:26:18;7.60;;;3.20;;
65658;SDS011;60181;53.258;6.932;2023-03-12T01:30:22;6.40;;;3.20;;
65658;SDS011;60181;53.258;6.932;2023-03-12T01:34:26;6.40;;;3.20;;
65658;SDS011;60181;53.258;6.932;2023-03-12T01:38:30;7.20;;;2.90;;
65658;SDS011;60181;53.258;6.932;2023-03-12T01:42:34;7.20;;;2.90;;
65658;SDS011;60181;53.258;6.932;2023-03-12T01:46:39;8.50;;;3.10;;
65658;SDS011;60181;53.258;6.932;2023-03-12T01:50:42;8.50;;;3.10;;
65658;SDS011;60181;53.258;6.932;2023-03-12T01:54:52;8.50;;;3.10;;
65658;SDS011;60181;53.258;6.932;2023-03-12T01:58:51;7.50;;;3.20;;
65658;SDS011;60181;53.258;6.932;2023-03-12T02:02:57;7.50;;;3.20;;
65658;SDS011;60181;53.258;6.932;2023-03-12T02:07:06;9.30;;;3.20;;
65658;SDS011;60181;53.258;6.932;2023-03-12T02:11:02;9.30;;;3.20;;
65658;SDS011;60181;53.258;6.932;2023-03-12T02:15:07;9.30;;;3.20;;
65658;SDS011;60181;53.258;6.932;2023-03-12T02:19:22;5.70;;;3.00;;
65658;SDS011;60181;53.258;6.932;2023-03-12T02:27:18;7.70;;;2.90;;
65658;SDS011;60181;53.258;6.932;2023-03-12T02:31:23;7.70;;;2.90;;
65658;SDS011;60181;53.258;6.932;2023-03-12T02:35:26;7.70;;;2.90;;
65658;SDS011;60181;53.258;6.932;2023-03-12T02:39:30;9.30;;;3.40;;
65658;SDS011;60181;53.258;6.932;2023-03-12T02:43:34;9.30;;;3.40;;
65658;SDS011;60181;53.258;6.932;2023-03-12T02:47:38;6.90;;;2.90;;
65658;SDS011;60181;53.258;6.932;2023-03-12T02:51:43;6.90;;;2.90;;
65658;SDS011;60181;53.258;6.932;2023-03-12T02:55:46;6.90;;;2.90;;
65658;SDS011;60181;53.258;6.932;2023-03-12T02:59:50;7.20;;;3.10;;
65658;SDS011;60181;53.258;6.932;2023-03-12T03:03:54;7.20;;;3.10;;
65658;SDS011;60181;53.258;6.932;2023-03-12T03:07:58;8.70;;;3.00;;
65658;SDS011;60181;53.258;6.932;2023-03-12T03:12:02;8.70;;;3.00;;
65658;SDS011;60181;53.258;6.932;2023-03-12T03:16:06;8.70;;;3.00;;
65658;SDS011;60181;53.258;6.932;2023-03-12T03:20:10;8.60;;;3.00;;
65658;SDS011;60181;53.258;6.932;2023-03-12T03:24:14;8.60;;;3.00;;
65658;SDS011;60181;53.258;6.932;2023-03-12T03:28:19;7.80;;;3.30;;
65658;SDS011;60181;53.258;6.932;2023-03-12T03:32:22;7.80;;;3.30;;
65658;SDS011;60181;53.258;6.932;2023-03-12T03:36:26;7.80;;;3.30;;
65658;SDS011;60181;53.258;6.932;2023-03-12T03:40:30;9.90;;;3.30;;
65658;SDS011;60181;53.258;6.932;2023-03-12T03:44:34;9.90;;;3.30;;
65658;SDS011;60181;53.258;6.932;2023-03-12T03:48:38;9.90;;;3.40;;
65658;SDS011;60181;53.258;6.932;2023-03-12T03:52:42;9.90;;;3.40;;
65658;SDS011;60181;53.258;6.932;2023-03-12T03:56:46;9.40;;;3.40;;
65658;SDS011;60181;53.258;6.932;2023-03-12T04:00:50;9.40;;;3.40;;
65658;SDS011;60181;53.258;6.932;2023-03-12T04:04:57;9.40;;;3.40;;
65658;SDS011;60181;53.258;6.932;2023-03-12T04:08:58;8.20;;;3.00;;
65658;SDS011;60181;53.258;6.932;2023-03-12T04:13:02;8.20;;;3.00;;
65658;SDS011;60181;53.258;6.932;2023-03-12T04:17:06;6.40;;;3.10;;
65658;SDS011;60181;53.258;6.932;2023-03-12T04:21:11;6.40;;;3.10;;
65658;SDS011;60181;53.258;6.932;2023-03-12T04:25:14;6.40;;;3.10;;
65658;SDS011;60181;53.258;6.932;2023-03-12T04:29:18;9.90;;;3.30;;
65658;SDS011;60181;53.258;6.932;2023-03-12T04:33:22;9.90;;;3.30;;
65658;SDS011;60181;53.258;6.932;2023-03-12T04:37:26;7.60;;;3.30;;
65658;SDS011;60181;53.258;6.932;2023-03-12T04:41:30;7.60;;;3.30;;
65658;SDS011;60181;53.258;6.932;2023-03-12T04:45:34;7.60;;;3.30;;
65658;SDS011;60181;53.258;6.932;2023-03-12T04:49:38;8.00;;;3.40;;
65658;SDS011;60181;53.258;6.932;2023-03-12T04:53:42;8.00;;;3.40;;
65658;SDS011;60181;53.258;6.932;2023-03-12T04:57:46;8.40;;;3.60;;
65658;SDS011;60181;53.258;6.932;2023-03-12T05:01:50;8.40;;;3.60;;
65658;SDS011;60181;53.258;6.932;2023-03-12T05:05:54;8.40;;;3.60;;
65658;SDS011;60181;53.258;6.932;2023-03-12T05:09:58;8.60;;;3.40;;
65658;SDS011;60181;53.258;6.932;2023-03-12T05:14:02;8.60;;;3.40;;
65658;SDS011;60181;53.258;6.932;2023-03-12T05:18:06;13.10;;;4.10;;
65658;SDS011;60181;53.258;6.932;2023-03-12T05:22:10;13.10;;;4.10;;
65658;SDS011;60181;53.258;6.932;2023-03-12T05:26:15;13.10;;;4.10;;
65658;SDS011;60181;53.258;6.932;2023-03-12T05:30:18;13.30;;;4.00;;
65658;SDS011;60181;53.258;6.932;2023-03-12T05:34:22;13.30;;;4.00;;
65658;SDS011;60181;53.258;6.932;2023-03-12T05:38:26;11.40;;;4.10;;
65658;SDS011;60181;53.258;6.932;2023-03-12T05:42:30;11.40;;;4.10;;
65658;SDS011;60181;53.258;6.932;2023-03-12T05:46:34;10.30;;;4.50;;
65658;SDS011;60181;53.258;6.932;2023-03-12T05:50:38;10.30;;;4.50;;
65658;SDS011;60181;53.258;6.932;2023-03-12T05:54:42;10.30;;;4.50;;
65658;SDS011;60181;53.258;6.932;2023-03-12T05:58:46;11.10;;;4.50;;
65658;SDS011;60181;53.258;6.932;2023-03-12T06:02:50;11.10;;;4.50;;
65658;SDS011;60181;53.258;6.932;2023-03-12T06:06:54;10.70;;;5.40;;
65658;SDS011;60181;53.258;6.932;2023-03-12T06:10:58;10.70;;;5.40;;
65658;SDS011;60181;53.258;6.932;2023-03-12T06:15:02;10.70;;;5.40;;
65658;SDS011;60181;53.258;6.932;2023-03-12T06:19:06;12.70;;;5.60;;
65658;SDS011;60181;53.258;6.932;2023-03-12T06:23:10;12.70;;;5.60;;
65658;SDS011;60181;53.258;6.932;2023-03-12T06:27:14;13.40;;;5.80;;
65658;SDS011;60181;53.258;6.932;2023-03-12T06:31:18;13.40;;;5.80;;
65658;SDS011;60181;53.258;6.932;2023-03-12T06:35:22;13.40;;;5.80;;
65658;SDS011;60181;53.258;6.932;2023-03-12T06:39:26;13.90;;;5.90;;
65658;SDS011;60181;53.258;6.932;2023-03-12T06:43:31;13.90;;;5.90;;
65658;SDS011;60181;53.258;6.932;2023-03-12T06:47:34;12.30;;;6.40;;
65658;SDS011;60181;53.258;6.932;2023-03-12T06:51:38;12.30;;;6.40;;
65658;SDS011;60181;53.258;6.932;2023-03-12T06:55:42;12.30;;;6.40;;
65658;SDS011;60181;53.258;6.932;2023-03-12T06:59:46;14.10;;;6.70;;
65658;SDS011;60181;53.258;6.932;2023-03-12T07:03:50;14.10;;;6.70;;
65658;SDS011;60181;53.258;6.932;2023-03-12T07:07:54;17.40;;;6.60;;
65658;SDS011;60181;53.258;6.932;2023-03-12T07:11:58;17.40;;;6.60;;
65658;SDS011;60181;53.258;6.932;2023-03-12T07:16:02;17.40;;;6.60;;
65658;SDS011;60181;53.258;6.932;2023-03-12T07:20:06;17.80;;;6.70;;
65658;SDS011;60181;53.258;6.932;2023-03-12T07:24:10;17.80;;;6.70;;
65658;SDS011;60181;53.258;6.932;2023-03-12T07:28:14;14.50;;;6.90;;
65658;SDS011;60181;53.258;6.932;2023-03-12T07:32:18;14.50;;;6.90;;
65658;SDS011;60181;53.258;6.932;2023-03-12T07:36:22;14.50;;;6.90;;
65658;SDS011;60181;53.258;6.932;2023-03-12T07:40:26;14.50;;;7.10;;
65658;SDS011;60181;53.258;6.932;2023-03-12T07:44:30;14.50;;;7.10;;
65658;SDS011;60181;53.258;6.932;2023-03-12T07:48:34;16.00;;;6.80;;
65658;SDS011;60181;53.258;6.932;2023-03-12T07:52:38;16.00;;;6.80;;
65658;SDS011;60181;53.258;6.932;2023-03-12T07:56:42;15.90;;;6.50;;
65658;SDS011;60181;53.258;6.932;2023-03-12T08:00:46;15.90;;;6.50;;
65658;SDS011;60181;53.258;6.932;2023-03-12T08:04:50;15.90;;;6.50;;
65658;SDS011;60181;53.258;6.932;2023-03-12T08:08:54;13.50;;;6.60;;
65658;SDS011;60181;53.258;6.932;2023-03-12T08:12:58;13.50;;;6.60;;
65658;SDS011;60181;53.258;6.932;2023-03-12T08:17:02;16.20;;;7.10;;
65658;SDS011;60181;53.258;6.932;2023-03-12T08:21:06;16.20;;;7.10;;
65658;SDS011;60181;53.258;6.932;2023-03-12T08:25:10;16.20;;;7.10;;
65658;SDS011;60181;53.258;6.932;2023-03-12T08:29:14;15.80;;;6.90;;
65658;SDS011;60181;53.258;6.932;2023-03-12T08:33:18;15.80;;;6.90;;
65658;SDS011;60181;53.258;6.932;2023-03-12T08:37:22;15.60;;;7.10;;
65658;SDS011;60181;53.258;6.932;2023-03-12T08:41:26;15.60;;;7.10;;
65658;SDS011;60181;53.258;6.932;2023-03-12T08:45:30;15.60;;;7.10;;
65658;SDS011;60181;53.258;6.932;2023-03-12T08:49:34;18.00;;;8.70;;
65658;SDS011;60181;53.258;6.932;2023-03-12T08:53:38;18.00;;;8.70;;
65658;SDS011;60181;53.258;6.932;2023-03-12T08:57:42;18.10;;;8.20;;
65658;SDS011;60181;53.258;6.932;2023-03-12T09:01:46;18.10;;;8.20;;
65658;SDS011;60181;53.258;6.932;2023-03-12T09:05:50;18.10;;;8.20;;
65658;SDS011;60181;53.258;6.932;2023-03-12T09:09:54;16.50;;;8.00;;
65658;SDS011;60181;53.258;6.932;2023-03-12T09:13:58;16.50;;;8.00;;
65658;SDS011;60181;53.258;6.932;2023-03-12T09:18:02;18.20;;;8.10;;
65658;SDS011;60181;53.258;6.932;2023-03-12T09:22:06;18.20;;;8.10;;
65658;SDS011;60181;53.258;6.932;2023-03-12T09:26:10;18.20;;;8.10;;
65658;SDS011;60181;53.258;6.932;2023-03-12T09:30:15;15.20;;;7.90;;
65658;SDS011;60181;53.258;6.932;2023-03-12T09:34:18;15.20;;;7.90;;
65658;SDS011;60181;53.258;6.932;2023-03-12T09:38:22;18.00;;;7.90;;
65658;SDS011;60181;53.258;6.932;2023-03-12T09:46:37;18.00;;;7.90;;
65658;SDS011;60181;53.258;6.932;2023-03-12T09:50:35;16.50;;;7.90;;
65658;SDS011;60181;53.258;6.932;2023-03-12T09:54:43;16.50;;;7.90;;
65658;SDS011;60181;53.258;6.932;2023-03-12T09:58:42;13.50;;;7.90;;
65658;SDS011;60181;53.258;6.932;2023-03-12T10:19:20;16.90;;;7.30;;
65658;SDS011;60181;53.258;6.932;2023-03-12T10:23:25;16.90;;;7.30;;
65658;SDS011;60181;53.258;6.932;2023-03-12T10:27:11;12.60;;;6.10;;
65658;SDS011;60181;53.258;6.932;2023-03-12T10:31:22;12.60;;;6.10;;
65658;SDS011;60181;53.258;6.932;2023-03-12T10:35:18;12.60;;;6.10;;
65658;SDS011;60181;53.258;6.932;2023-03-12T10:39:21;13.20;;;6.50;;
65658;SDS011;60181;53.258;6.932;2023-03-12T10:43:25;13.20;;;6.50;;
65658;SDS011;60181;53.258;6.932;2023-03-12T10:47:36;18.20;;;7.50;;
65658;SDS011;60181;53.258;6.932;2023-03-12T10:51:34;18.20;;;7.50;;
65658;SDS011;60181;53.258;6.932;2023-03-12T10:55:38;18.20;;;7.50;;
65658;SDS011;60181;53.258;6.932;2023-03-12T10:59:43;16.00;;;7.00;;
65658;SDS011;60181;53.258;6.932;2023-03-12T11:03:45;16.00;;;7.00;;
65658;SDS011;60181;53.258;6.932;2023-03-12T11:07:49;17.30;;;7.20;;
65658;SDS011;60181;53.258;6.932;2023-03-12T11:11:53;17.30;;;7.20;;
65658;SDS011;60181;53.258;6.932;2023-03-12T11:20:16;19.10;;;8.40;;
65658;SDS011;60181;53.258;6.932;2023-03-12T11:24:11;19.10;;;8.40;;
65658;SDS011;60181;53.258;6.932;2023-03-12T11:28:12;19.10;;;8.60;;
65658;SDS011;60181;53.258;6.932;2023-03-12T11:40:30;20.00;;;9.00;;
65658;SDS011;60181;53.258;6.932;2023-03-12T11:44:26;20.00;;;9.00;;
65658;SDS011;60181;53.258;6.932;2023-03-12T11:48:36;18.80;;;8.60;;
65658;SDS011;60181;53.258;6.932;2023-03-12T11:56:38;22.80;;;9.90;;
65658;SDS011;60181;53.258;6.932;2023-03-12T12:04:55;22.80;;;9.90;;
65658;SDS011;60181;53.258;6.932;2023-03-12T12:09:04;22.90;;;10.30;;
65658;SDS011;60181;53.258;6.932;2023-03-12T12:17:06;26.20;;;10.80;;
65658;SDS011;60181;53.258;6.932;2023-03-12T12:21:03;26.20;;;10.80;;
65658;SDS011;60181;53.258;6.932;2023-03-12T12:29:12;24.20;;;10.90;;
65658;SDS011;60181;53.258;6.932;2023-03-12T12:33:23;24.20;;;10.90;;
65658;SDS011;60181;53.258;6.932;2023-03-12T12:41:24;34.10;;;14.30;;
65658;SDS011;60181;53.258;6.932;2023-03-12T12:45:25;34.10;;;14.30;;
65658;SDS011;60181;53.258;6.932;2023-03-12T12:49:42;32.50;;;14.80;;
65658;SDS011;60181;53.258;6.932;2023-03-12T12:57:38;35.10;;;14.90;;
65658;SDS011;60181;53.258;6.932;2023-03-12T13:01:41;35.10;;;14.90;;
65658;SDS011;60181;53.258;6.932;2023-03-12T13:05:47;35.10;;;14.90;;
65658;SDS011;60181;53.258;6.932;2023-03-12T13:09:50;29.70;;;13.30;;
65658;SDS011;60181;53.258;6.932;2023-03-12T13:18:02;30.60;;;13.20;;
65658;SDS011;60181;53.258;6.932;2023-03-12T13:22:07;30.60;;;13.20;;
65658;SDS011;60181;53.258;6.932;2023-03-12T13:26:22;30.60;;;13.20;;
65658;SDS011;60181;53.258;6.932;2023-03-12T13:38:32;26.20;;;12.40;;
65658;SDS011;60181;53.258;6.932;2023-03-12T13:42:26;26.20;;;12.40;;
65658;SDS011;60181;53.258;6.932;2023-03-12T13:46:38;26.20;;;12.40;;
65658;SDS011;60181;53.258;6.932;2023-03-12T13:50:29;27.50;;;12.50;;
65658;SDS011;60181;53.258;6.932;2023-03-12T13:54:33;27.50;;;12.50;;
65658;SDS011;60181;53.258;6.932;2023-03-12T13:58:46;26.10;;;12.00;;
65658;SDS011;60181;53.258;6.932;2023-03-12T14:02:47;26.10;;;12.00;;
65658;SDS011;60181;53.258;6.932;2023-03-12T14:10:52;25.10;;;11.80;;
65658;SDS011;60181;53.258;6.932;2023-03-12T14:14:59;25.10;;;11.80;;
65658;SDS011;60181;53.258;6.932;2023-03-12T14:18:57;25.60;;;11.50;;
65658;SDS011;60181;53.258;6.932;2023-03-12T14:23:05;25.60;;;11.50;;
65658;SDS011;60181;53.258;6.932;2023-03-12T14:27:09;25.70;;;11.50;;
65658;SDS011;60181;53.258;6.932;2023-03-12T14:31:11;25.70;;;11.50;;
65658;SDS011;60181;53.258;6.932;2023-03-12T14:35:32;25.70;;;11.50;;
65658;SDS011;60181;53.258;6.932;2023-03-12T14:43:25;24.10;;;10.90;;
65658;SDS011;60181;53.258;6.932;2023-03-12T14:47:25;22.70;;;10.80;;
65658;SDS011;60181;53.258;6.932;2023-03-12T14:51:29;22.70;;;10.80;;
65658;SDS011;60181;53.258;6.932;2023-03-12T14:55:33;22.70;;;10.80;;
65658;SDS011;60181;53.258;6.932;2023-03-12T14:59:37;21.40;;;10.30;;
65658;SDS011;60181;53.258;6.932;2023-03-12T15:03:42;21.40;;;10.30;;
65658;SDS011;60181;53.258;6.932;2023-03-12T15:07:45;22.40;;;10.00;;
65658;SDS011;60181;53.258;6.932;2023-03-12T15:15:53;22.40;;;10.00;;
65658;SDS011;60181;53.258;6.932;2023-03-12T15:19:57;19.80;;;9.70;;
65658;SDS011;60181;53.258;6.932;2023-03-12T15:24:01;19.80;;;9.70;;
65658;SDS011;60181;53.258;6.932;2023-03-12T15:32:12;21.90;;;9.60;;
65658;SDS011;60181;53.258;6.932;2023-03-12T15:40:24;20.50;;;9.30;;
65658;SDS011;60181;53.258;6.932;2023-03-12T15:44:22;20.50;;;9.30;;
65658;SDS011;60181;53.258;6.932;2023-03-12T15:48:27;18.50;;;8.30;;
65658;SDS011;60181;53.258;6.932;2023-03-12T15:52:32;18.50;;;8.30;;
65658;SDS011;60181;53.258;6.932;2023-03-12T15:56:34;18.00;;;8.40;;
65658;SDS011;60181;53.258;6.932;2023-03-12T16:00:40;18.00;;;8.40;;
65658;SDS011;60181;53.258;6.932;2023-03-12T16:04:41;18.00;;;8.40;;
65658;SDS011;60181;53.258;6.932;2023-03-12T16:08:46;18.10;;;8.00;;
65658;SDS011;60181;53.258;6.932;2023-03-12T16:12:49;18.10;;;8.00;;
65658;SDS011;60181;53.258;6.932;2023-03-12T16:16:53;18.00;;;7.70;;
65658;SDS011;60181;53.258;6.932;2023-03-12T16:20:57;18.00;;;7.70;;
65658;SDS011;60181;53.258;6.932;2023-03-12T16:25:01;18.00;;;7.70;;
65658;SDS011;60181;53.258;6.932;2023-03-12T16:29:05;16.60;;;7.60;;
65658;SDS011;60181;53.258;6.932;2023-03-12T16:33:12;16.60;;;7.60;;
65658;SDS011;60181;53.258;6.932;2023-03-12T16:37:13;15.40;;;7.40;;
65658;SDS011;60181;53.258;6.932;2023-03-12T16:41:17;15.40;;;7.40;;
65658;SDS011;60181;53.258;6.932;2023-03-12T16:45:21;15.40;;;7.40;;
65658;SDS011;60181;53.258;6.932;2023-03-12T16:49:25;16.10;;;7.50;;
65658;SDS011;60181;53.258;6.932;2023-03-12T16:53:29;16.10;;;7.50;;
65658;SDS011;60181;53.258;6.932;2023-03-12T16:57:36;16.20;;;6.90;;
65658;SDS011;60181;53.258;6.932;2023-03-12T17:01:37;16.20;;;6.90;;
65658;SDS011;60181;53.258;6.932;2023-03-12T17:05:41;16.20;;;6.90;;
65658;SDS011;60181;53.258;6.932;2023-03-12T17:09:45;19.50;;;7.20;;
65658;SDS011;60181;53.258;6.932;2023-03-12T17:13:50;19.50;;;7.20;;
65658;SDS011;60181;53.258;6.932;2023-03-12T17:17:53;14.00;;;6.00;;
65658;SDS011;60181;53.258;6.932;2023-03-12T17:21:57;14.00;;;6.00;;
65658;SDS011;60181;53.258;6.932;2023-03-12T17:26:01;14.00;;;6.00;;
65658;SDS011;60181;53.258;6.932;2023-03-12T17:30:05;13.70;;;6.00;;
65658;SDS011;60181;53.258;6.932;2023-03-12T17:34:09;13.70;;;6.00;;
65658;SDS011;60181;53.258;6.932;2023-03-12T17:38:13;14.70;;;5.80;;
65658;SDS011;60181;53.258;6.932;2023-03-12T17:42:17;14.70;;;5.80;;
65658;SDS011;60181;53.258;6.932;2023-03-12T17:46:21;14.70;;;5.80;;
65658;SDS011;60181;53.258;6.932;2023-03-12T17:50:25;15.10;;;6.10;;
65658;SDS011;60181;53.258;6.932;2023-03-12T17:54:29;15.10;;;6.10;;
65658;SDS011;60181;53.258;6.932;2023-03-12T17:58:33;15.00;;;5.80;;
65658;SDS011;60181;53.258;6.932;2023-03-12T18:02:40;15.00;;;5.80;;
65658;SDS011;60181;53.258;6.932;2023-03-12T18:06:41;12.40;;;5.60;;
65658;SDS011;60181;53.258;6.932;2023-03-12T18:10:46;12.40;;;5.60;;
65658;SDS011;60181;53.258;6.932;2023-03-12T18:14:49;12.40;;;5.60;;
65658;SDS011;60181;53.258;6.932;2023-03-12T18:18:53;12.00;;;5.00;;
65658;SDS011;60181;53.258;6.932;2023-03-12T18:22:57;12.00;;;5.00;;
65658;SDS011;60181;53.258;6.932;2023-03-12T18:27:01;12.30;;;5.10;;
65658;SDS011;60181;53.258;6.932;2023-03-12T18:31:05;12.30;;;5.10;;
65658;SDS011;60181;53.258;6.932;2023-03-12T18:35:09;12.30;;;5.10;;
65658;SDS011;60181;53.258;6.932;2023-03-12T18:39:13;12.40;;;5.10;;
65658;SDS011;60181;53.258;6.932;2023-03-12T18:43:17;12.40;;;5.10;;
65658;SDS011;60181;53.258;6.932;2023-03-12T18:47:21;10.40;;;4.80;;
65658;SDS011;60181;53.258;6.932;2023-03-12T18:51:25;10.40;;;4.80;;
65658;SDS011;60181;53.258;6.932;2023-03-12T18:55:29;10.40;;;4.80;;
65658;SDS011;60181;53.258;6.932;2023-03-12T18:59:33;11.70;;;4.90;;
65658;SDS011;60181;53.258;6.932;2023-03-12T19:03:37;11.70;;;4.90;;
65658;SDS011;60181;53.258;6.932;2023-03-12T19:07:41;12.20;;;4.80;;
65658;SDS011;60181;53.258;6.932;2023-03-12T19:11:45;12.20;;;4.80;;
65658;SDS011;60181;53.258;6.932;2023-03-12T19:15:49;12.20;;;4.80;;
65658;SDS011;60181;53.258;6.932;2023-03-12T19:19:53;11.60;;;4.70;;
65658;SDS011;60181;53.258;6.932;2023-03-12T19:23:57;11.60;;;4.70;;
65658;SDS011;60181;53.258;6.932;2023-03-12T19:28:01;13.10;;;5.00;;
65658;SDS011;60181;53.258;6.932;2023-03-12T19:32:05;13.10;;;5.00;;
65658;SDS011;60181;53.258;6.932;2023-03-12T19:36:09;13.10;;;5.00;;
65658;SDS011;60181;53.258;6.932;2023-03-12T19:40:13;13.10;;;4.70;;
65658;SDS011;60181;53.258;6.932;2023-03-12T19:44:17;13.10;;;4.70;;
65658;SDS011;60181;53.258;6.932;2023-03-12T19:48:21;11.20;;;4.30;;
65658;SDS011;60181;53.258;6.932;2023-03-12T19:52:25;11.20;;;4.30;;
65658;SDS011;60181;53.258;6.932;2023-03-12T19:56:29;11.20;;;4.30;;
65658;SDS011;60181;53.258;6.932;2023-03-12T20:00:33;11.50;;;4.60;;
65658;SDS011;60181;53.258;6.932;2023-03-12T20:04:37;11.50;;;4.60;;
65658;SDS011;60181;53.258;6.932;2023-03-12T20:08:41;13.60;;;5.00;;
65658;SDS011;60181;53.258;6.932;2023-03-12T20:12:45;13.60;;;5.00;;
65658;SDS011;60181;53.258;6.932;2023-03-12T20:16:49;12.80;;;4.40;;
65658;SDS011;60181;53.258;6.932;2023-03-12T20:20:53;12.80;;;4.40;;
65658;SDS011;60181;53.258;6.932;2023-03-12T20:24:57;12.80;;;4.40;;
65658;SDS011;60181;53.258;6.932;2023-03-12T20:29:01;10.70;;;4.20;;
65658;SDS011;60181;53.258;6.932;2023-03-12T20:33:05;10.70;;;4.20;;
65658;SDS011;60181;53.258;6.932;2023-03-12T20:37:09;10.70;;;4.30;;
65658;SDS011;60181;53.258;6.932;2023-03-12T20:41:13;10.70;;;4.30;;
65658;SDS011;60181;53.258;6.932;2023-03-12T20:45:17;10.70;;;4.30;;
65658;SDS011;60181;53.258;6.932;2023-03-12T20:49:21;12.00;;;4.60;;
65658;SDS011;60181;53.258;6.932;2023-03-12T20:53:25;12.00;;;4.60;;
65658;SDS011;60181;53.258;6.932;2023-03-12T20:57:29;12.20;;;4.30;;
65658;SDS011;60181;53.258;6.932;2023-03-12T21:01:33;12.20;;;4.30;;
65658;SDS011;60181;53.258;6.932;2023-03-12T21:05:37;12.20;;;4.30;;
65658;SDS011;60181;53.258;6.932;2023-03-12T21:09:41;12.00;;;4.20;;
65658;SDS011;60181;53.258;6.932;2023-03-12T21:13:45;12.00;;;4.20;;
65658;SDS011;60181;53.258;6.932;2023-03-12T21:17:49;9.90;;;4.00;;
65658;SDS011;60181;53.258;6.932;2023-03-12T21:21:53;9.90;;;4.00;;
65658;SDS011;60181;53.258;6.932;2023-03-12T21:25:57;9.90;;;4.00;;
65658;SDS011;60181;53.258;6.932;2023-03-12T21:30:01;10.70;;;4.10;;
65658;SDS011;60181;53.258;6.932;2023-03-12T21:34:05;10.70;;;4.10;;
65658;SDS011;60181;53.258;6.932;2023-03-12T21:38:09;12.10;;;4.50;;
65658;SDS011;60181;53.258;6.932;2023-03-12T21:42:13;12.10;;;4.50;;
65658;SDS011;60181;53.258;6.932;2023-03-12T21:46:17;12.10;;;4.50;;
65658;SDS011;60181;53.258;6.932;2023-03-12T21:50:20;20.90;;;4.30;;
65658;SDS011;60181;53.258;6.932;2023-03-12T21:54:25;20.90;;;4.30;;
65658;SDS011;60181;53.258;6.932;2023-03-12T21:58:29;17.60;;;4.20;;
65658;SDS011;60181;53.258;6.932;2023-03-12T22:02:32;17.60;;;4.20;;
65658;SDS011;60181;53.258;6.932;2023-03-12T22:06:36;16.70;;;3.70;;
65658;SDS011;60181;53.258;6.932;2023-03-12T22:10:40;16.70;;;3.70;;
65658;SDS011;60181;53.258;6.932;2023-03-12T22:14:44;16.70;;;3.70;;
65658;SDS011;60181;53.258;6.932;2023-03-12T22:18:48;19.20;;;4.10;;
65658;SDS011;60181;53.258;6.932;2023-03-12T22:22:52;19.20;;;4.10;;
65658;SDS011;60181;53.258;6.932;2023-03-12T22:26:56;18.70;;;4.00;;
65658;SDS011;60181;53.258;6.932;2023-03-12T22:31:01;18.70;;;4.00;;
65658;SDS011;60181;53.258;6.932;2023-03-12T22:35:05;18.70;;;4.00;;
65658;SDS011;60181;53.258;6.932;2023-03-12T22:39:08;20.20;;;3.60;;
65658;SDS011;60181;53.258;6.932;2023-03-12T22:43:13;20.20;;;3.60;;
65658;SDS011;60181;53.258;6.932;2023-03-12T22:47:16;20.10;;;3.30;;
65658;SDS011;60181;53.258;6.932;2023-03-12T22:51:21;20.10;;;3.30;;
65658;SDS011;60181;53.258;6.932;2023-03-12T22:55:24;20.10;;;3.30;;
65658;SDS011;60181;53.258;6.932;2023-03-12T22:59:28;20.00;;;3.60;;
65658;SDS011;60181;53.258;6.932;2023-03-12T23:03:33;20.00;;;3.60;;
65658;SDS011;60181;53.258;6.932;2023-03-12T23:07:36;18.70;;;3.70;;
65658;SDS011;60181;53.258;6.932;2023-03-12T23:11:40;18.70;;;3.70;;
65658;SDS011;60181;53.258;6.932;2023-03-12T23:15:44;18.70;;;3.70;;
65658;SDS011;60181;53.258;6.932;2023-03-12T23:19:48;18.70;;;3.70;;
65658;SDS011;60181;53.258;6.932;2023-03-12T23:23:52;18.70;;;3.70;;
65658;SDS011;60181;53.258;6.932;2023-03-12T23:27:56;22.30;;;3.60;;
65658;SDS011;60181;53.258;6.932;2023-03-12T23:32:00;22.30;;;3.60;;
65658;SDS011;60181;53.258;6.932;2023-03-12T23:36:09;22.30;;;3.60;;
65658;SDS011;60181;53.258;6.932;2023-03-12T23:40:09;20.80;;;3.90;;
65658;SDS011;60181;53.258;6.932;2023-03-12T23:44:12;20.80;;;3.90;;
65658;SDS011;60181;53.258;6.932;2023-03-12T23:48:16;24.00;;;3.80;;
65658;SDS011;60181;53.258;6.932;2023-03-12T23:52:20;24.00;;;3.80;;
65658;SDS011;60181;53.258;6.932;2023-03-12T23:56:25;24.00;;;3.80;;
